Date,TemperatureHighF,TemperatureAvgF,TemperatureLowF,DewpointHighF,DewpointAvgF,DewpointLowF,HumidityHigh,HumidityAvg,HumidityLow,PressureMaxIn,PressureMinIn,WindSpeedMaxMPH,WindSpeedAvgMPH,GustSpeedMaxMPH,PrecipitationSumIn
2013-1-1,37.1,34.5,31.4,31.0,26.7,15.0,83,74,46,30.04,29.90,4,1,7,0.09
2013-1-2,32.9,28.4,23.4,27.0,20.1,-99.9,90,74,52,30.19,29.96,3,-10,6,0.00
2013-1-3,34.6,27.2,21.7,22.0,17.1,13.0,88,68,45,30.22,30.14,6,1,7,0.00
2013-1-4,36.3,27.8,22.3,19.0,16.8,15.0,76,64,48,30.20,30.11,6,2,10,0.00
2013-1-5,42.0,33.2,25.6,24.0,16.9,14.0,64,52,35,30.36,30.14,7,1,11,0.00
2013-1-6,38.1,34.6,31.2,27.0,25.1,23.0,76,68,59,30.15,30.00,6,2,13,0.00
2013-1-7,38.3,32.1,28.5,27.0,25.0,24.0,83,75,62,30.42,30.14,6,1,9,0.02
2013-1-8,50.6,39.1,32.4,29.0,26.2,23.0,79,61,40,30.43,30.33,9,2,14,0.07
2013-1-9,51.8,45.6,39.3,44.0,36.9,24.0,88,72,47,30.41,30.26,10,3,18,0.00
2013-1-10,52.1,43.2,37.7,31.0,25.1,20.0,60,50,29,30.55,30.39,5,1,8,0.00
2013-1-11,50.8,44.0,38.1,49.0,37.5,24.0,95,79,53,30.41,30.07,11,3,17,0.01
2013-1-12,65.5,56.1,48.7,53.0,49.2,-99.9,95,81,60,30.13,30.02,5,-10,8,0.00
2013-1-13,63.1,59.2,56.6,55.0,53.6,51.0,89,82,69,30.02,29.90,8,2,16,0.00
2013-1-14,59.0,48.0,32.3,55.0,44.6,31.0,94,88,81,30.21,29.90,14,2,18,0.25
2013-1-15,37.2,31.6,30.0,36.0,30.5,29.0,95,95,94,30.29,30.11,3,0,6,0.16
2013-1-16,50.8,37.8,30.3,47.0,34.9,-99.9,97,92,77,30.11,29.88,10,-10,15,0.01
2013-1-17,41.2,35.0,28.5,39.0,29.5,20.0,93,81,51,30.08,29.98,3,0,6,0.00
2013-1-18,35.9,28.3,22.6,25.0,14.9,9.0,86,59,33,30.47,30.09,8,2,14,0.00
2013-1-19,49.3,38.3,30.5,23.0,17.3,9.0,55,43,30,30.42,29.99,10,4,14,0.00
2013-1-20,48.8,40.1,30.8,29.0,16.1,-5.0,62,40,18,30.00,29.84,9,4,20,0.00
2013-1-21,41.1,30.7,19.3,16.0,8.5,2.0,54,40,29,30.00,29.77,12,3,20,0.00
2013-1-22,18.8,11.2,6.3,5.0,-5.6,-9.0,63,48,31,30.25,29.87,11,3,17,0.00
2013-1-23,18.5,13.4,5.5,13.0,-0.7,-6.0,87,55,39,30.33,30.10,7,1,11,0.00
2013-1-24,19.0,13.1,8.8,14.0,4.8,-2.0,90,71,44,30.53,30.04,10,2,16,0.00
2013-1-25,19.7,13.1,8.1,17.0,5.4,-3.0,88,72,54,30.51,30.06,8,2,17,0.00
2013-1-26,28.9,23.5,20.2,23.0,18.9,16.0,88,83,76,30.40,30.06,5,1,8,0.00
2013-1-27,31.7,24.6,16.5,22.0,18.2,13.0,86,77,62,30.55,30.40,6,1,8,0.00
2013-1-28,49.4,39.3,28.8,44.0,35.0,22.0,94,85,75,30.45,30.12,12,3,16,0.20
2013-1-29,68.5,55.0,46.0,54.0,48.8,44.0,94,81,57,30.13,29.90,8,2,18,0.00
2013-1-30,61.6,57.2,51.7,58.0,53.8,50.0,94,88,78,29.91,29.19,22,5,24,2.11
2013-1-31,53.3,31.6,22.5,52.0,22.3,11.0,95,69,52,29.85,29.15,18,5,22,0.08